< < Back
Terminal Aerodrome Forecast


Current Version              Previous Versions:   1  2  3  4  5  6  7  8  9  

Terminal Aerodrome Forecast

175
FTUS42 KGSP 271000 AAA
TAFAND
TAF AMD
KAND 271000Z 2710/2806 18003KT P6SM VCSH BKN045
      TEMPO 2710/2712 OVC015
     FM271400 VRB02KT P6SM VCSH BKN050
     FM272200 23006KT P6SM VCTS BKN060CB PROB30 2722/2804 4SM -TSRA
      OVC025CB=



Latest METAR

316
SAUS70 KWBC 271000 RRG
MTRAND
METAR KAND 270956Z AUTO 01003KT 10SM FEW022 FEW095 21/19 A2999 RMK AO2
SLP144 T02110194


USA.gov is the U.S. government's official web portal to all federal, state and local government web resources and services.